sensor_id;sensor_type;location;lat;lon;timestamp;P1;durP1;ratioP1;P2;durP2;ratioP2
20411;SDS011;10365;52.578;8.138;2023-01-16T00:01:53;11.32;;;1.83;;
20411;SDS011;10365;52.578;8.138;2023-01-16T00:04:20;6.65;;;1.08;;
20411;SDS011;10365;52.578;8.138;2023-01-16T00:06:45;8.15;;;1.48;;
20411;SDS011;10365;52.578;8.138;2023-01-16T00:09:11;8.07;;;1.40;;
20411;SDS011;10365;52.578;8.138;2023-01-16T00:11:36;8.98;;;1.00;;
20411;SDS011;10365;52.578;8.138;2023-01-16T00:14:01;5.63;;;1.08;;
20411;SDS011;10365;52.578;8.138;2023-01-16T00:16:27;7.68;;;1.55;;
20411;SDS011;10365;52.578;8.138;2023-01-16T00:18:52;7.07;;;1.30;;
20411;SDS011;10365;52.578;8.138;2023-01-16T00:21:18;9.90;;;1.40;;
20411;SDS011;10365;52.578;8.138;2023-01-16T00:23:44;7.05;;;1.25;;
20411;SDS011;10365;52.578;8.138;2023-01-16T00:26:10;5.65;;;1.00;;
20411;SDS011;10365;52.578;8.138;2023-01-16T00:28:37;3.60;;;1.00;;
20411;SDS011;10365;52.578;8.138;2023-01-16T00:31:03;4.20;;;1.15;;
20411;SDS011;10365;52.578;8.138;2023-01-16T00:33:29;5.45;;;1.10;;
20411;SDS011;10365;52.578;8.138;2023-01-16T00:35:55;8.02;;;1.63;;
20411;SDS011;10365;52.578;8.138;2023-01-16T00:38:20;10.63;;;1.15;;
20411;SDS011;10365;52.578;8.138;2023-01-16T00:40:45;3.65;;;1.00;;
20411;SDS011;10365;52.578;8.138;2023-01-16T00:43:11;4.95;;;1.20;;
20411;SDS011;10365;52.578;8.138;2023-01-16T00:45:36;5.97;;;1.13;;
20411;SDS011;10365;52.578;8.138;2023-01-16T00:48:02;8.45;;;0.98;;
20411;SDS011;10365;52.578;8.138;2023-01-16T00:50:27;7.90;;;1.35;;
20411;SDS011;10365;52.578;8.138;2023-01-16T00:52:52;5.68;;;1.00;;
20411;SDS011;10365;52.578;8.138;2023-01-16T00:55:18;4.88;;;1.30;;
20411;SDS011;10365;52.578;8.138;2023-01-16T00:57:43;7.72;;;1.05;;
20411;SDS011;10365;52.578;8.138;2023-01-16T01:00:08;3.47;;;0.85;;
20411;SDS011;10365;52.578;8.138;2023-01-16T01:02:34;2.75;;;0.95;;
20411;SDS011;10365;52.578;8.138;2023-01-16T01:04:59;8.30;;;1.35;;
20411;SDS011;10365;52.578;8.138;2023-01-16T01:07:25;6.30;;;0.93;;
20411;SDS011;10365;52.578;8.138;2023-01-16T01:09:50;4.80;;;1.20;;
20411;SDS011;10365;52.578;8.138;2023-01-16T01:12:16;6.60;;;1.33;;
20411;SDS011;10365;52.578;8.138;2023-01-16T01:14:41;3.70;;;1.10;;
20411;SDS011;10365;52.578;8.138;2023-01-16T01:17:07;5.68;;;1.35;;
20411;SDS011;10365;52.578;8.138;2023-01-16T01:19:32;5.03;;;1.10;;
20411;SDS011;10365;52.578;8.138;2023-01-16T01:21:57;8.00;;;1.23;;
20411;SDS011;10365;52.578;8.138;2023-01-16T01:24:23;3.63;;;1.17;;
20411;SDS011;10365;52.578;8.138;2023-01-16T01:26:48;4.68;;;0.85;;
20411;SDS011;10365;52.578;8.138;2023-01-16T01:29:13;5.55;;;1.45;;
20411;SDS011;10365;52.578;8.138;2023-01-16T01:31:39;6.20;;;1.10;;
20411;SDS011;10365;52.578;8.138;2023-01-16T01:34:04;7.85;;;1.10;;
20411;SDS011;10365;52.578;8.138;2023-01-16T01:36:29;5.68;;;1.05;;
20411;SDS011;10365;52.578;8.138;2023-01-16T01:38:55;5.97;;;0.95;;
20411;SDS011;10365;52.578;8.138;2023-01-16T01:41:20;3.17;;;0.82;;
20411;SDS011;10365;52.578;8.138;2023-01-16T01:43:47;2.97;;;0.95;;
20411;SDS011;10365;52.578;8.138;2023-01-16T01:46:23;5.57;;;0.85;;
20411;SDS011;10365;52.578;8.138;2023-01-16T01:48:51;2.72;;;1.00;;
20411;SDS011;10365;52.578;8.138;2023-01-16T01:51:22;6.70;;;1.27;;
20411;SDS011;10365;52.578;8.138;2023-01-16T01:53:50;4.28;;;1.00;;
20411;SDS011;10365;52.578;8.138;2023-01-16T01:58:46;7.35;;;0.90;;
20411;SDS011;10365;52.578;8.138;2023-01-16T02:01:13;3.53;;;1.25;;
20411;SDS011;10365;52.578;8.138;2023-01-16T02:03:40;3.33;;;0.88;;
20411;SDS011;10365;52.578;8.138;2023-01-16T02:06:07;4.07;;;1.00;;
20411;SDS011;10365;52.578;8.138;2023-01-16T02:08:33;9.43;;;1.33;;
20411;SDS011;10365;52.578;8.138;2023-01-16T02:11:10;2.13;;;1.08;;
20411;SDS011;10365;52.578;8.138;2023-01-16T02:14:00;5.88;;;1.05;;
20411;SDS011;10365;52.578;8.138;2023-01-16T02:16:27;5.82;;;1.20;;
20411;SDS011;10365;52.578;8.138;2023-01-16T02:19:31;7.07;;;1.23;;
20411;SDS011;10365;52.578;8.138;2023-01-16T02:22:16;7.45;;;1.75;;
20411;SDS011;10365;52.578;8.138;2023-01-16T02:25:15;7.90;;;1.20;;
20411;SDS011;10365;52.578;8.138;2023-01-16T02:27:47;4.65;;;2.00;;
20411;SDS011;10365;52.578;8.138;2023-01-16T02:38:00;3.03;;;1.10;;
20411;SDS011;10365;52.578;8.138;2023-01-16T02:45:28;3.38;;;1.10;;
20411;SDS011;10365;52.578;8.138;2023-01-16T02:50:36;4.20;;;1.10;;
20411;SDS011;10365;52.578;8.138;2023-01-16T02:58:12;3.60;;;0.82;;
20411;SDS011;10365;52.578;8.138;2023-01-16T03:00:47;2.63;;;0.68;;
20411;SDS011;10365;52.578;8.138;2023-01-16T03:03:19;5.00;;;1.05;;
20411;SDS011;10365;52.578;8.138;2023-01-16T03:05:51;3.53;;;1.00;;
20411;SDS011;10365;52.578;8.138;2023-01-16T03:08:25;2.65;;;0.60;;
20411;SDS011;10365;52.578;8.138;2023-01-16T03:11:07;5.10;;;0.77;;
20411;SDS011;10365;52.578;8.138;2023-01-16T03:21:36;1.00;;;0.70;;
20411;SDS011;10365;52.578;8.138;2023-01-16T03:26:51;7.07;;;0.90;;
20411;SDS011;10365;52.578;8.138;2023-01-16T03:32:41;2.85;;;1.20;;
20411;SDS011;10365;52.578;8.138;2023-01-16T03:37:13;2.92;;;0.95;;
20411;SDS011;10365;52.578;8.138;2023-01-16T03:39:45;3.53;;;1.70;;
20411;SDS011;10365;52.578;8.138;2023-01-16T03:42:13;6.13;;;1.38;;
20411;SDS011;10365;52.578;8.138;2023-01-16T03:44:40;4.00;;;1.60;;
20411;SDS011;10365;52.578;8.138;2023-01-16T03:47:09;3.95;;;1.20;;
20411;SDS011;10365;52.578;8.138;2023-01-16T03:49:37;6.13;;;1.30;;
20411;SDS011;10365;52.578;8.138;2023-01-16T03:52:04;4.68;;;1.48;;
20411;SDS011;10365;52.578;8.138;2023-01-16T03:59:30;5.60;;;1.58;;
20411;SDS011;10365;52.578;8.138;2023-01-16T04:02:09;3.10;;;1.42;;
20411;SDS011;10365;52.578;8.138;2023-01-16T04:04:38;3.60;;;1.20;;
20411;SDS011;10365;52.578;8.138;2023-01-16T04:07:17;7.22;;;1.38;;
20411;SDS011;10365;52.578;8.138;2023-01-16T04:09:55;2.28;;;1.05;;
20411;SDS011;10365;52.578;8.138;2023-01-16T04:12:22;3.42;;;1.33;;
20411;SDS011;10365;52.578;8.138;2023-01-16T04:14:53;10.65;;;2.13;;
20411;SDS011;10365;52.578;8.138;2023-01-16T04:17:19;5.45;;;1.40;;
20411;SDS011;10365;52.578;8.138;2023-01-16T04:19:45;5.85;;;1.70;;
20411;SDS011;10365;52.578;8.138;2023-01-16T04:22:17;9.07;;;1.73;;
20411;SDS011;10365;52.578;8.138;2023-01-16T04:24:44;2.45;;;1.23;;
20411;SDS011;10365;52.578;8.138;2023-01-16T04:27:10;3.17;;;1.50;;
20411;SDS011;10365;52.578;8.138;2023-01-16T04:29:35;2.72;;;1.50;;
20411;SDS011;10365;52.578;8.138;2023-01-16T04:32:00;3.03;;;1.70;;
20411;SDS011;10365;52.578;8.138;2023-01-16T04:34:26;5.15;;;1.98;;
20411;SDS011;10365;52.578;8.138;2023-01-16T04:36:51;7.53;;;2.20;;
20411;SDS011;10365;52.578;8.138;2023-01-16T04:39:17;8.25;;;2.28;;
20411;SDS011;10365;52.578;8.138;2023-01-16T04:41:42;6.72;;;1.98;;
20411;SDS011;10365;52.578;8.138;2023-01-16T04:44:08;7.18;;;2.13;;
20411;SDS011;10365;52.578;8.138;2023-01-16T04:46:34;3.63;;;2.28;;
20411;SDS011;10365;52.578;8.138;2023-01-16T04:48:59;7.50;;;2.70;;
20411;SDS011;10365;52.578;8.138;2023-01-16T04:51:25;6.85;;;1.70;;
20411;SDS011;10365;52.578;8.138;2023-01-16T04:53:50;9.60;;;2.55;;
20411;SDS011;10365;52.578;8.138;2023-01-16T04:56:16;5.90;;;2.28;;
20411;SDS011;10365;52.578;8.138;2023-01-16T04:58:41;4.78;;;1.98;;
20411;SDS011;10365;52.578;8.138;2023-01-16T05:01:06;3.88;;;1.95;;
20411;SDS011;10365;52.578;8.138;2023-01-16T05:03:32;8.38;;;2.05;;
20411;SDS011;10365;52.578;8.138;2023-01-16T05:05:57;5.88;;;1.67;;
20411;SDS011;10365;52.578;8.138;2023-01-16T05:08:22;7.65;;;2.20;;
20411;SDS011;10365;52.578;8.138;2023-01-16T05:10:52;6.97;;;2.35;;
20411;SDS011;10365;52.578;8.138;2023-01-16T05:13:18;11.40;;;2.10;;
20411;SDS011;10365;52.578;8.138;2023-01-16T05:15:44;8.70;;;2.03;;
20411;SDS011;10365;52.578;8.138;2023-01-16T05:18:10;8.18;;;2.47;;
20411;SDS011;10365;52.578;8.138;2023-01-16T05:20:37;4.90;;;1.98;;
20411;SDS011;10365;52.578;8.138;2023-01-16T05:23:02;3.85;;;1.52;;
20411;SDS011;10365;52.578;8.138;2023-01-16T05:25:27;4.72;;;2.00;;
20411;SDS011;10365;52.578;8.138;2023-01-16T05:27:53;9.73;;;1.92;;
20411;SDS011;10365;52.578;8.138;2023-01-16T05:30:18;6.00;;;2.50;;
20411;SDS011;10365;52.578;8.138;2023-01-16T05:32:43;9.45;;;1.83;;
20411;SDS011;10365;52.578;8.138;2023-01-16T05:35:10;4.43;;;1.67;;
20411;SDS011;10365;52.578;8.138;2023-01-16T05:37:35;4.97;;;1.63;;
20411;SDS011;10365;52.578;8.138;2023-01-16T05:40:01;5.38;;;1.60;;
20411;SDS011;10365;52.578;8.138;2023-01-16T05:42:26;9.77;;;2.08;;
20411;SDS011;10365;52.578;8.138;2023-01-16T05:44:51;8.23;;;2.08;;
20411;SDS011;10365;52.578;8.138;2023-01-16T05:47:20;4.95;;;2.00;;
20411;SDS011;10365;52.578;8.138;2023-01-16T05:49:46;3.70;;;2.08;;
20411;SDS011;10365;52.578;8.138;2023-01-16T05:52:12;5.03;;;2.10;;
20411;SDS011;10365;52.578;8.138;2023-01-16T05:54:38;5.95;;;2.30;;
20411;SDS011;10365;52.578;8.138;2023-01-16T05:57:03;9.45;;;2.63;;
20411;SDS011;10365;52.578;8.138;2023-01-16T05:59:28;3.60;;;2.30;;
20411;SDS011;10365;52.578;8.138;2023-01-16T06:01:53;9.93;;;2.25;;
20411;SDS011;10365;52.578;8.138;2023-01-16T06:04:19;14.35;;;2.60;;
20411;SDS011;10365;52.578;8.138;2023-01-16T06:06:45;7.85;;;2.80;;
20411;SDS011;10365;52.578;8.138;2023-01-16T06:09:10;9.38;;;3.40;;
20411;SDS011;10365;52.578;8.138;2023-01-16T06:11:36;5.85;;;2.67;;
20411;SDS011;10365;52.578;8.138;2023-01-16T06:14:01;5.53;;;2.55;;
20411;SDS011;10365;52.578;8.138;2023-01-16T06:16:28;5.13;;;2.28;;
20411;SDS011;10365;52.578;8.138;2023-01-16T06:18:54;7.22;;;2.53;;
20411;SDS011;10365;52.578;8.138;2023-01-16T06:21:19;10.55;;;2.58;;
20411;SDS011;10365;52.578;8.138;2023-01-16T06:23:44;6.43;;;2.10;;
20411;SDS011;10365;52.578;8.138;2023-01-16T06:26:10;3.42;;;1.90;;
20411;SDS011;10365;52.578;8.138;2023-01-16T06:28:36;4.85;;;1.50;;
20411;SDS011;10365;52.578;8.138;2023-01-16T06:31:02;9.23;;;2.40;;
20411;SDS011;10365;52.578;8.138;2023-01-16T06:33:27;6.10;;;1.80;;
20411;SDS011;10365;52.578;8.138;2023-01-16T06:35:52;5.15;;;1.88;;
20411;SDS011;10365;52.578;8.138;2023-01-16T06:38:18;5.53;;;2.20;;
20411;SDS011;10365;52.578;8.138;2023-01-16T06:40:43;6.82;;;1.38;;
20411;SDS011;10365;52.578;8.138;2023-01-16T06:43:09;4.22;;;1.40;;
20411;SDS011;10365;52.578;8.138;2023-01-16T06:45:35;8.63;;;2.08;;
20411;SDS011;10365;52.578;8.138;2023-01-16T06:48:00;4.65;;;1.80;;
20411;SDS011;10365;52.578;8.138;2023-01-16T06:50:25;5.57;;;1.75;;
20411;SDS011;10365;52.578;8.138;2023-01-16T06:52:51;5.18;;;1.83;;
20411;SDS011;10365;52.578;8.138;2023-01-16T06:55:16;5.57;;;1.88;;
20411;SDS011;10365;52.578;8.138;2023-01-16T06:57:41;4.70;;;1.63;;
20411;SDS011;10365;52.578;8.138;2023-01-16T07:00:07;5.68;;;1.52;;
20411;SDS011;10365;52.578;8.138;2023-01-16T07:02:32;8.77;;;1.40;;
20411;SDS011;10365;52.578;8.138;2023-01-16T07:04:58;3.35;;;1.30;;
20411;SDS011;10365;52.578;8.138;2023-01-16T07:07:23;5.88;;;1.75;;
20411;SDS011;10365;52.578;8.138;2023-01-16T07:09:48;4.57;;;1.30;;
20411;SDS011;10365;52.578;8.138;2023-01-16T07:12:14;4.30;;;1.13;;
20411;SDS011;10365;52.578;8.138;2023-01-16T07:14:39;4.45;;;1.45;;
20411;SDS011;10365;52.578;8.138;2023-01-16T07:17:23;3.90;;;1.10;;
20411;SDS011;10365;52.578;8.138;2023-01-16T07:20:09;4.38;;;1.15;;
20411;SDS011;10365;52.578;8.138;2023-01-16T07:22:53;3.03;;;0.82;;
20411;SDS011;10365;52.578;8.138;2023-01-16T07:25:20;3.22;;;1.08;;
20411;SDS011;10365;52.578;8.138;2023-01-16T07:27:46;2.42;;;0.95;;
20411;SDS011;10365;52.578;8.138;2023-01-16T07:30:13;3.08;;;0.90;;
20411;SDS011;10365;52.578;8.138;2023-01-16T07:32:39;3.33;;;0.70;;
20411;SDS011;10365;52.578;8.138;2023-01-16T07:35:04;6.05;;;0.88;;
20411;SDS011;10365;52.578;8.138;2023-01-16T07:37:30;2.67;;;1.00;;
20411;SDS011;10365;52.578;8.138;2023-01-16T07:39:56;6.05;;;1.02;;
20411;SDS011;10365;52.578;8.138;2023-01-16T07:42:21;3.17;;;1.30;;
20411;SDS011;10365;52.578;8.138;2023-01-16T07:44:46;7.22;;;1.35;;
20411;SDS011;10365;52.578;8.138;2023-01-16T07:47:12;6.07;;;1.60;;
20411;SDS011;10365;52.578;8.138;2023-01-16T07:49:38;5.80;;;1.00;;
20411;SDS011;10365;52.578;8.138;2023-01-16T07:52:03;2.97;;;1.20;;
20411;SDS011;10365;52.578;8.138;2023-01-16T07:54:28;4.28;;;1.00;;
20411;SDS011;10365;52.578;8.138;2023-01-16T07:56:54;3.40;;;1.00;;
20411;SDS011;10365;52.578;8.138;2023-01-16T07:59:19;8.73;;;1.13;;
20411;SDS011;10365;52.578;8.138;2023-01-16T08:01:44;4.75;;;0.80;;
20411;SDS011;10365;52.578;8.138;2023-01-16T08:04:12;4.50;;;1.15;;
20411;SDS011;10365;52.578;8.138;2023-01-16T08:06:37;7.10;;;0.98;;
20411;SDS011;10365;52.578;8.138;2023-01-16T08:09:02;7.95;;;1.30;;
20411;SDS011;10365;52.578;8.138;2023-01-16T08:11:27;3.97;;;0.93;;
20411;SDS011;10365;52.578;8.138;2023-01-16T08:14:03;1.02;;;0.57;;
20411;SDS011;10365;52.578;8.138;2023-01-16T08:16:29;3.13;;;1.10;;
20411;SDS011;10365;52.578;8.138;2023-01-16T08:18:55;2.60;;;0.98;;
20411;SDS011;10365;52.578;8.138;2023-01-16T08:21:20;3.33;;;0.90;;
20411;SDS011;10365;52.578;8.138;2023-01-16T08:23:45;5.53;;;1.10;;
20411;SDS011;10365;52.578;8.138;2023-01-16T08:26:11;3.28;;;1.13;;
20411;SDS011;10365;52.578;8.138;2023-01-16T08:28:36;6.95;;;0.90;;
20411;SDS011;10365;52.578;8.138;2023-01-16T08:31:06;3.15;;;1.17;;
20411;SDS011;10365;52.578;8.138;2023-01-16T08:33:37;1.90;;;0.80;;
20411;SDS011;10365;52.578;8.138;2023-01-16T08:36:05;3.05;;;0.60;;
20411;SDS011;10365;52.578;8.138;2023-01-16T08:38:31;6.07;;;0.73;;
20411;SDS011;10365;52.578;8.138;2023-01-16T08:40:57;3.08;;;0.95;;
20411;SDS011;10365;52.578;8.138;2023-01-16T08:43:22;3.05;;;0.88;;
20411;SDS011;10365;52.578;8.138;2023-01-16T08:46:22;5.70;;;1.08;;
20411;SDS011;10365;52.578;8.138;2023-01-16T08:49:08;4.65;;;1.00;;
20411;SDS011;10365;52.578;8.138;2023-01-16T08:51:53;3.92;;;1.45;;
20411;SDS011;10365;52.578;8.138;2023-01-16T08:54:19;1.85;;;0.90;;
20411;SDS011;10365;52.578;8.138;2023-01-16T08:56:44;3.63;;;1.00;;
20411;SDS011;10365;52.578;8.138;2023-01-16T08:59:09;2.75;;;0.85;;
20411;SDS011;10365;52.578;8.138;2023-01-16T09:01:38;1.48;;;0.70;;
20411;SDS011;10365;52.578;8.138;2023-01-16T09:04:04;4.65;;;0.93;;
20411;SDS011;10365;52.578;8.138;2023-01-16T09:06:29;1.63;;;0.65;;
20411;SDS011;10365;52.578;8.138;2023-01-16T09:08:54;1.75;;;0.70;;
20411;SDS011;10365;52.578;8.138;2023-01-16T09:11:20;1.70;;;0.98;;
20411;SDS011;10365;52.578;8.138;2023-01-16T09:14:04;4.25;;;0.63;;
20411;SDS011;10365;52.578;8.138;2023-01-16T09:16:29;3.17;;;0.60;;
20411;SDS011;10365;52.578;8.138;2023-01-16T09:18:54;1.75;;;0.63;;
20411;SDS011;10365;52.578;8.138;2023-01-16T09:21:20;4.50;;;1.02;;
20411;SDS011;10365;52.578;8.138;2023-01-16T09:23:47;2.67;;;1.13;;
20411;SDS011;10365;52.578;8.138;2023-01-16T09:26:12;3.88;;;1.52;;
20411;SDS011;10365;52.578;8.138;2023-01-16T09:28:38;3.80;;;0.88;;
20411;SDS011;10365;52.578;8.138;2023-01-16T09:31:03;4.22;;;0.80;;
20411;SDS011;10365;52.578;8.138;2023-01-16T09:33:29;2.03;;;1.00;;
20411;SDS011;10365;52.578;8.138;2023-01-16T09:35:54;4.50;;;0.80;;
20411;SDS011;10365;52.578;8.138;2023-01-16T09:38:20;3.88;;;1.33;;
20411;SDS011;10365;52.578;8.138;2023-01-16T09:40:46;8.32;;;3.17;;
20411;SDS011;10365;52.578;8.138;2023-01-16T09:45:58;6.13;;;2.42;;
20411;SDS011;10365;52.578;8.138;2023-01-16T09:48:34;4.75;;;1.90;;
20411;SDS011;10365;52.578;8.138;2023-01-16T09:51:02;4.70;;;1.88;;
20411;SDS011;10365;52.578;8.138;2023-01-16T09:56:15;7.32;;;3.97;;
20411;SDS011;10365;52.578;8.138;2023-01-16T09:59:14;8.80;;;3.28;;
20411;SDS011;10365;52.578;8.138;2023-01-16T10:01:42;1.75;;;1.10;;
20411;SDS011;10365;52.578;8.138;2023-01-16T10:04:12;2.80;;;1.13;;
20411;SDS011;10365;52.578;8.138;2023-01-16T10:06:42;4.28;;;1.20;;
20411;SDS011;10365;52.578;8.138;2023-01-16T10:09:14;6.38;;;1.08;;
20411;SDS011;10365;52.578;8.138;2023-01-16T10:11:54;5.90;;;1.48;;
20411;SDS011;10365;52.578;8.138;2023-01-16T10:14:31;2.90;;;1.15;;
20411;SDS011;10365;52.578;8.138;2023-01-16T10:19:34;2.85;;;1.13;;
20411;SDS011;10365;52.578;8.138;2023-01-16T10:27:00;4.80;;;1.08;;
20411;SDS011;10365;52.578;8.138;2023-01-16T10:32:01;4.38;;;1.00;;
20411;SDS011;10365;52.578;8.138;2023-01-16T10:34:32;2.60;;;0.70;;
20411;SDS011;10365;52.578;8.138;2023-01-16T10:36:58;4.63;;;1.40;;
20411;SDS011;10365;52.578;8.138;2023-01-16T10:39:24;2.88;;;0.75;;
20411;SDS011;10365;52.578;8.138;2023-01-16T10:41:53;3.22;;;1.10;;
20411;SDS011;10365;52.578;8.138;2023-01-16T10:45:13;4.80;;;1.17;;
20411;SDS011;10365;52.578;8.138;2023-01-16T10:47:52;8.13;;;1.00;;
20411;SDS011;10365;52.578;8.138;2023-01-16T10:50:36;3.20;;;0.98;;
20411;SDS011;10365;52.578;8.138;2023-01-16T10:53:05;2.20;;;0.75;;
20411;SDS011;10365;52.578;8.138;2023-01-16T10:55:32;3.20;;;1.20;;
20411;SDS011;10365;52.578;8.138;2023-01-16T10:57:58;4.57;;;1.38;;
20411;SDS011;10365;52.578;8.138;2023-01-16T11:00:27;6.88;;;1.10;;
20411;SDS011;10365;52.578;8.138;2023-01-16T11:02:57;1.92;;;1.00;;
20411;SDS011;10365;52.578;8.138;2023-01-16T11:07:52;5.93;;;1.27;;
20411;SDS011;10365;52.578;8.138;2023-01-16T11:10:18;4.78;;;0.93;;
20411;SDS011;10365;52.578;8.138;2023-01-16T11:12:43;5.78;;;1.30;;
20411;SDS011;10365;52.578;8.138;2023-01-16T11:15:28;3.80;;;1.00;;
20411;SDS011;10365;52.578;8.138;2023-01-16T11:18:20;4.78;;;1.02;;
20411;SDS011;10365;52.578;8.138;2023-01-16T11:20:55;3.22;;;0.90;;
20411;SDS011;10365;52.578;8.138;2023-01-16T11:23:23;8.32;;;1.20;;
20411;SDS011;10365;52.578;8.138;2023-01-16T11:25:50;3.85;;;1.13;;
20411;SDS011;10365;52.578;8.138;2023-01-16T11:28:37;4.05;;;1.80;;
20411;SDS011;10365;52.578;8.138;2023-01-16T11:31:12;7.30;;;1.98;;
20411;SDS011;10365;52.578;8.138;2023-01-16T11:33:45;4.88;;;1.02;;
20411;SDS011;10365;52.578;8.138;2023-01-16T11:36:14;4.88;;;0.95;;
20411;SDS011;10365;52.578;8.138;2023-01-16T11:38:42;5.75;;;0.70;;
20411;SDS011;10365;52.578;8.138;2023-01-16T11:41:08;5.25;;;0.95;;
20411;SDS011;10365;52.578;8.138;2023-01-16T11:43:33;5.88;;;2.30;;
20411;SDS011;10365;52.578;8.138;2023-01-16T11:46:37;10.15;;;2.72;;
20411;SDS011;10365;52.578;8.138;2023-01-16T11:49:04;8.45;;;1.58;;
20411;SDS011;10365;52.578;8.138;2023-01-16T11:51:31;11.23;;;3.60;;
20411;SDS011;10365;52.578;8.138;2023-01-16T11:53:57;7.00;;;2.05;;
20411;SDS011;10365;52.578;8.138;2023-01-16T12:04:53;3.92;;;1.67;;
20411;SDS011;10365;52.578;8.138;2023-01-16T12:07:44;5.65;;;1.35;;
20411;SDS011;10365;52.578;8.138;2023-01-16T12:10:21;3.47;;;0.85;;
20411;SDS011;10365;52.578;8.138;2023-01-16T12:12:55;3.80;;;1.73;;
20411;SDS011;10365;52.578;8.138;2023-01-16T12:15:46;4.78;;;1.08;;
20411;SDS011;10365;52.578;8.138;2023-01-16T12:21:00;4.07;;;0.75;;
20411;SDS011;10365;52.578;8.138;2023-01-16T12:25:59;3.13;;;0.82;;
20411;SDS011;10365;52.578;8.138;2023-01-16T12:36:11;4.07;;;0.75;;
20411;SDS011;10365;52.578;8.138;2023-01-16T12:38:42;5.25;;;0.40;;
20411;SDS011;10365;52.578;8.138;2023-01-16T12:41:14;5.65;;;0.82;;
20411;SDS011;10365;52.578;8.138;2023-01-16T12:56:45;3.72;;;0.73;;
20411;SDS011;10365;52.578;8.138;2023-01-16T13:01:49;1.67;;;0.52;;
20411;SDS011;10365;52.578;8.138;2023-01-16T13:04:20;1.70;;;0.45;;
20411;SDS011;10365;52.578;8.138;2023-01-16T13:06:47;2.35;;;0.45;;
20411;SDS011;10365;52.578;8.138;2023-01-16T13:09:18;2.72;;;0.70;;
20411;SDS011;10365;52.578;8.138;2023-01-16T13:11:55;2.35;;;0.70;;
20411;SDS011;10365;52.578;8.138;2023-01-16T13:14:39;4.10;;;1.05;;
20411;SDS011;10365;52.578;8.138;2023-01-16T13:17:11;3.97;;;1.15;;
20411;SDS011;10365;52.578;8.138;2023-01-16T13:19:39;8.35;;;2.92;;
20411;SDS011;10365;52.578;8.138;2023-01-16T13:22:06;8.75;;;2.90;;
20411;SDS011;10365;52.578;8.138;2023-01-16T13:24:46;17.98;;;5.78;;
20411;SDS011;10365;52.578;8.138;2023-01-16T13:27:16;20.00;;;6.35;;
20411;SDS011;10365;52.578;8.138;2023-01-16T13:29:50;31.40;;;10.35;;
20411;SDS011;10365;52.578;8.138;2023-01-16T13:35:20;4.32;;;1.45;;
20411;SDS011;10365;52.578;8.138;2023-01-16T13:42:51;1.10;;;0.80;;
20411;SDS011;10365;52.578;8.138;2023-01-16T13:45:19;1.10;;;0.50;;
20411;SDS011;10365;52.578;8.138;2023-01-16T13:48:05;2.22;;;0.90;;
20411;SDS011;10365;52.578;8.138;2023-01-16T13:50:30;1.52;;;0.50;;
20411;SDS011;10365;52.578;8.138;2023-01-16T13:52:59;1.83;;;0.60;;
20411;SDS011;10365;52.578;8.138;2023-01-16T13:55:28;1.38;;;0.47;;
20411;SDS011;10365;52.578;8.138;2023-01-16T13:57:55;0.68;;;0.30;;
20411;SDS011;10365;52.578;8.138;2023-01-16T14:00:21;1.25;;;0.50;;
20411;SDS011;10365;52.578;8.138;2023-01-16T14:03:00;0.65;;;0.40;;
20411;SDS011;10365;52.578;8.138;2023-01-16T14:05:41;3.22;;;0.60;;
20411;SDS011;10365;52.578;8.138;2023-01-16T14:13:48;2.40;;;1.95;;
20411;SDS011;10365;52.578;8.138;2023-01-16T14:19:00;2.92;;;1.40;;
20411;SDS011;10365;52.578;8.138;2023-01-16T14:21:38;1.33;;;1.10;;
20411;SDS011;10365;52.578;8.138;2023-01-16T14:24:05;1.80;;;0.73;;
20411;SDS011;10365;52.578;8.138;2023-01-16T14:29:34;1.30;;;0.32;;
20411;SDS011;10365;52.578;8.138;2023-01-16T14:32:02;0.90;;;0.30;;
20411;SDS011;10365;52.578;8.138;2023-01-16T14:34:37;1.13;;;0.30;;
20411;SDS011;10365;52.578;8.138;2023-01-16T14:39:57;0.65;;;0.30;;
20411;SDS011;10365;52.578;8.138;2023-01-16T14:42:34;0.90;;;0.20;;
20411;SDS011;10365;52.578;8.138;2023-01-16T14:48:14;0.80;;;0.17;;
20411;SDS011;10365;52.578;8.138;2023-01-16T14:51:53;1.10;;;0.40;;
20411;SDS011;10365;52.578;8.138;2023-01-16T14:59:34;0.93;;;0.50;;
20411;SDS011;10365;52.578;8.138;2023-01-16T15:02:16;4.03;;;1.88;;
20411;SDS011;10365;52.578;8.138;2023-01-16T15:07:12;2.60;;;1.17;;
20411;SDS011;10365;52.578;8.138;2023-01-16T15:09:39;1.02;;;0.60;;
20411;SDS011;10365;52.578;8.138;2023-01-16T15:12:10;2.45;;;1.15;;
20411;SDS011;10365;52.578;8.138;2023-01-16T15:14:36;1.13;;;0.50;;
20411;SDS011;10365;52.578;8.138;2023-01-16T15:20:00;7.05;;;3.05;;
20411;SDS011;10365;52.578;8.138;2023-01-16T15:22:46;3.72;;;1.50;;
20411;SDS011;10365;52.578;8.138;2023-01-16T15:25:18;1.10;;;0.55;;
20411;SDS011;10365;52.578;8.138;2023-01-16T15:27:47;0.40;;;0.30;;
20411;SDS011;10365;52.578;8.138;2023-01-16T15:30:16;1.40;;;0.60;;
20411;SDS011;10365;52.578;8.138;2023-01-16T15:35:18;2.70;;;0.40;;
20411;SDS011;10365;52.578;8.138;2023-01-16T15:37:49;1.65;;;0.30;;
20411;SDS011;10365;52.578;8.138;2023-01-16T15:40:22;0.47;;;0.30;;
20411;SDS011;10365;52.578;8.138;2023-01-16T15:42:47;1.10;;;0.40;;
20411;SDS011;10365;52.578;8.138;2023-01-16T15:45:31;3.55;;;1.75;;
20411;SDS011;10365;52.578;8.138;2023-01-16T15:48:28;3.22;;;0.40;;
20411;SDS011;10365;52.578;8.138;2023-01-16T15:51:02;0.40;;;0.30;;
20411;SDS011;10365;52.578;8.138;2023-01-16T15:53:39;1.08;;;0.73;;
20411;SDS011;10365;52.578;8.138;2023-01-16T15:56:07;1.38;;;0.80;;
20411;SDS011;10365;52.578;8.138;2023-01-16T15:58:35;0.73;;;0.50;;
20411;SDS011;10365;52.578;8.138;2023-01-16T16:01:01;2.55;;;1.00;;
20411;SDS011;10365;52.578;8.138;2023-01-16T16:03:36;3.45;;;0.70;;
20411;SDS011;10365;52.578;8.138;2023-01-16T16:06:03;1.13;;;0.50;;
20411;SDS011;10365;52.578;8.138;2023-01-16T16:08:30;1.75;;;0.70;;
20411;SDS011;10365;52.578;8.138;2023-01-16T16:10:56;1.23;;;0.50;;
20411;SDS011;10365;52.578;8.138;2023-01-16T16:13:42;0.90;;;0.40;;
20411;SDS011;10365;52.578;8.138;2023-01-16T16:16:21;2.42;;;0.90;;
20411;SDS011;10365;52.578;8.138;2023-01-16T16:19:05;0.85;;;0.50;;
20411;SDS011;10365;52.578;8.138;2023-01-16T16:24:01;2.15;;;1.30;;
20411;SDS011;10365;52.578;8.138;2023-01-16T16:26:27;1.70;;;1.02;;
20411;SDS011;10365;52.578;8.138;2023-01-16T16:28:53;7.00;;;2.45;;
20411;SDS011;10365;52.578;8.138;2023-01-16T16:31:32;2.67;;;0.90;;
20411;SDS011;10365;52.578;8.138;2023-01-16T16:36:24;2.15;;;1.10;;
20411;SDS011;10365;52.578;8.138;2023-01-16T16:38:50;3.53;;;1.50;;
20411;SDS011;10365;52.578;8.138;2023-01-16T16:43:57;2.10;;;1.00;;
20411;SDS011;10365;52.578;8.138;2023-01-16T16:48:49;2.38;;;1.15;;
20411;SDS011;10365;52.578;8.138;2023-01-16T16:51:27;2.53;;;1.60;;
20411;SDS011;10365;52.578;8.138;2023-01-16T16:53:53;2.95;;;1.75;;
20411;SDS011;10365;52.578;8.138;2023-01-16T16:56:20;3.83;;;1.40;;
20411;SDS011;10365;52.578;8.138;2023-01-16T16:58:47;5.03;;;1.33;;
20411;SDS011;10365;52.578;8.138;2023-01-16T17:01:14;2.85;;;1.70;;
20411;SDS011;10365;52.578;8.138;2023-01-16T17:03:39;2.85;;;1.38;;
20411;SDS011;10365;52.578;8.138;2023-01-16T17:06:05;2.05;;;1.25;;
20411;SDS011;10365;52.578;8.138;2023-01-16T17:08:31;1.88;;;1.30;;
20411;SDS011;10365;52.578;8.138;2023-01-16T17:10:56;2.40;;;1.10;;
20411;SDS011;10365;52.578;8.138;2023-01-16T17:13:23;4.63;;;2.60;;
20411;SDS011;10365;52.578;8.138;2023-01-16T17:15:50;9.38;;;3.08;;
20411;SDS011;10365;52.578;8.138;2023-01-16T17:18:16;6.43;;;2.30;;
20411;SDS011;10365;52.578;8.138;2023-01-16T17:20:41;2.13;;;1.30;;
20411;SDS011;10365;52.578;8.138;2023-01-16T17:23:11;2.13;;;1.45;;
20411;SDS011;10365;52.578;8.138;2023-01-16T17:25:37;2.28;;;1.30;;
20411;SDS011;10365;52.578;8.138;2023-01-16T17:28:02;2.22;;;1.48;;
20411;SDS011;10365;52.578;8.138;2023-01-16T17:30:27;2.83;;;1.27;;